Time;durP1;ratioP1;P1;durP2;ratioP2;P2;SDS_P1;SDS_P2;PMS_P1;PMS_P2;Temp;Humidity;BMP_temperature;BMP_pressure;BME280_temperature;BME280_humidity;BME280_pressure;Samples;Min_cycle;Max_cycle;Signal;HPM_P1;HPM_P2
2022/01/23 00:00:45;;;;;;;14.80;5.60;;;;;;;-1.42;60.02;101258.92;1463506;86;22016;-80
2022/01/23 00:03:19;;;;;;;8.05;4.35;;;;;;;-1.38;60.24;101260.53;1476593;86;21685;-80
2022/01/23 00:05:51;;;;;;;11.55;4.37;;;;;;;-1.36;60.38;101261.31;1464652;86;22039;-80
2022/01/23 00:08:23;;;;;;;;;;;;;;;-1.32;59.95;101267.70;1447060;86;21406;-80
2022/01/23 00:10:53;;;;;;;;;;;;;;;-1.33;59.10;101267.31;1431868;86;20836;-80
2022/01/23 00:13:29;;;;;;;7.90;4.25;;;;;;;-1.28;59.55;101270.16;1444290;88;20248;-81
2022/01/23 00:18:39;;;;;;;9.50;3.92;;;;;;;-1.21;59.43;101275.56;1453274;86;21327;-80
2022/01/23 00:21:06;;;;;;;9.83;4.40;;;;;;;-1.19;59.65;101275.48;1496930;85;22850;-81
2022/01/23 00:30:19;;;;;;;5.97;2.83;;;;;;;-1.16;58.99;101277.98;1448553;86;21334;-82
2022/01/23 00:31:39;;;;;;;7.67;3.37;;;;;;;-1.09;57.80;101278.19;1418957;87;22262;-81
2022/01/23 00:34:06;;;;;;;5.72;3.27;;;;;;;-1.10;57.53;101273.87;1475139;87;22233;-80
2022/01/23 00:36:35;;;;;;;5.65;3.00;;;;;;;-1.08;57.96;101270.78;1448633;87;21446;-80
2022/01/23 00:39:04;;;;;;;11.10;3.35;;;;;;;-1.06;58.25;101267.69;1471087;86;21338;-82
2022/01/23 00:41:31;;;;;;;5.30;3.22;;;;;;;-1.05;58.66;101270.67;1436371;87;21261;-81
2022/01/23 00:44:00;;;;;;;6.22;3.12;;;;;;;-1.02;58.15;101271.86;1436934;87;21312;-83
2022/01/23 00:46:34;;;;;;;8.15;3.27;;;;;;;-1.04;57.24;101267.16;1437618;88;21517;-81
2022/01/23 00:51:32;;;;;;;6.45;2.98;;;;;;;-1.01;57.03;101255.36;1474732;87;22218;-81
2022/01/23 00:54:02;;;;;;;4.95;3.00;;;;;;;-1.03;57.17;101262.38;1442142;87;21327;-81
2022/01/23 00:56:30;;;;;;;7.87;2.98;;;;;;;-0.99;57.21;101246.23;1424930;88;21341;-82
2022/01/23 00:58:57;;;;;;;7.97;3.42;;;;;;;-1.02;57.19;101248.48;1459466;87;22361;-82
2022/01/23 01:01:26;;;;;;;5.62;2.27;;;;;;;-1.02;57.54;101245.04;1383836;88;21379;-83
2022/01/23 01:03:53;;;;;;;5.20;2.75;;;;;;;-1.03;56.53;101243.35;1484277;87;22438;-82
2022/01/23 01:06:20;;;;;;;7.45;3.52;;;;;;;-1.05;56.83;101242.55;1442644;87;21293;-82
2022/01/23 01:08:50;;;;;;;7.55;2.40;;;;;;;-1.04;56.61;101245.08;1414475;88;22395;-81
2022/01/23 01:35:40;;;;;;;6.37;3.10;;;;;;;-0.99;55.47;101240.58;1419885;86;21489;-82
2022/01/23 01:38:00;;;;;;;6.33;2.95;;;;;;;-0.99;55.75;101252.27;1427805;87;22390;-81
2022/01/23 01:40:27;;;;;;;9.28;2.98;;;;;;;-0.97;55.73;101250.47;1465237;87;21376;-81
2022/01/23 01:42:55;;;;;;;7.65;2.87;;;;;;;-0.93;56.73;101254.64;1471786;87;21347;-81
2022/01/23 01:45:25;;;;;;;6.72;2.60;;;;;;;-0.89;56.47;101246.73;1454516;87;23455;-81
2022/01/23 01:47:56;;;;;;;3.75;2.30;;;;;;;-0.86;55.60;101250.52;1447423;88;21400;-81
2022/01/23 01:50:23;;;;;;;8.43;2.98;;;;;;;-0.88;56.32;101254.50;1443489;87;21723;-81
2022/01/23 01:52:50;;;;;;;9.05;3.55;;;;;;;-0.85;56.44;101243.15;1482681;85;21510;-81
2022/01/23 01:55:26;;;;;;;6.12;3.12;;;;;;;-0.82;55.90;101254.27;1462830;86;21384;-81
2022/01/23 01:57:54;;;;;;;6.15;2.87;;;;;;;-0.80;56.10;101251.63;1500391;86;22432;-80
2022/01/23 02:10:53;;;;;;;3.40;1.95;;;;;;;-0.78;55.44;101248.05;1465348;87;21541;-79
2022/01/23 02:13:30;;;;;;;5.70;2.35;;;;;;;-0.75;56.57;101240.17;1419277;89;21483;-80
2022/01/23 02:24:37;;;;;;;7.00;2.75;;;;;;;-0.78;56.50;101235.52;1442201;89;21509;-81
2022/01/23 02:55:09;;;;;;;5.95;2.70;;;;;;;-0.90;56.62;101223.80;1477834;86;23682;-81
2022/01/23 02:57:04;;;;;;;6.85;3.65;;;;;;;-0.98;56.14;101224.10;1459330;86;22482;-81
2022/01/23 02:59:29;;;;;;;6.47;3.58;;;;;;;-0.99;55.95;101221.55;1475880;86;21436;-81
2022/01/23 03:02:05;;;;;;;8.10;3.50;;;;;;;-1.01;56.08;101225.48;1457627;87;21450;-81
2022/01/23 03:04:31;;;;;;;10.60;3.85;;;;;;;-1.06;56.36;101223.52;1463211;88;21664;-79
2022/01/23 03:07:35;;;;;;;7.10;3.70;;;;;;;-1.14;56.57;101225.08;1458652;88;21577;-80
2022/01/23 03:14:59;;;;;;;8.38;4.00;;;;;;;-1.15;56.38;101222.55;1468054;86;22329;-80
2022/01/23 03:28:18;;;;;;;9.85;4.92;;;;;;;-1.14;57.21;101226.83;1431512;89;21516;-80
2022/01/23 03:30:39;;;;;;;7.85;4.58;;;;;;;-1.13;57.20;101225.91;1455636;87;21522;-80
2022/01/23 03:33:05;;;;;;;12.18;5.65;;;;;;;-1.15;57.16;101227.74;1450054;87;21741;-80
2022/01/23 03:35:33;;;;;;;10.58;5.50;;;;;;;-1.15;57.15;101236.38;1452611;87;22439;-80
2022/01/23 03:38:00;;;;;;;10.10;5.15;;;;;;;-1.14;57.45;101229.42;1442189;88;21362;-80
2022/01/23 03:40:27;;;;;;;8.35;4.35;;;;;;;-1.15;57.45;101231.64;1475893;86;22587;-80
2022/01/23 03:43:07;;;;;;;11.03;4.97;;;;;;;-1.16;57.50;101228.16;1457869;86;21544;-81
2022/01/23 03:50:22;;;;;;;11.95;4.83;;;;;;;-1.12;57.59;101226.34;1423337;87;21656;-81
2022/01/23 03:52:49;;;;;;;11.12;5.65;;;;;;;-1.10;57.88;101224.51;1450133;87;21600;-80
2022/01/23 03:55:17;;;;;;;10.93;5.83;;;;;;;-1.08;57.86;101233.11;1456428;87;21450;-80
2022/01/23 03:57:44;;;;;;;10.08;4.90;;;;;;;-1.05;57.85;101233.00;1441656;87;21559;-79
2022/01/23 04:00:15;;;;;;;9.68;4.80;;;;;;;-1.08;57.65;101229.66;1471508;86;21441;-79
2022/01/23 04:02:41;;;;;;;10.95;5.30;;;;;;;-1.10;57.69;101237.50;1482581;86;21559;-79
2022/01/23 04:05:09;;;;;;;9.58;4.87;;;;;;;-1.12;57.77;101234.55;1455854;86;22508;-79
2022/01/23 04:07:37;;;;;;;13.70;6.03;;;;;;;-1.16;57.58;101237.27;1437468;88;22492;-79
2022/01/23 04:10:07;;;;;;;9.03;5.03;;;;;;;-1.21;57.71;101239.19;1470191;87;21391;-78
2022/01/23 04:18:57;;;;;;;12.18;6.53;;;;;;;-1.29;57.83;101239.90;1482489;86;21649;-78
2022/01/23 04:20:45;;;;;;;9.68;4.60;;;;;;;-1.28;57.80;101242.88;1426057;88;21495;-78
2022/01/23 05:01:24;;;;;;;10.30;4.62;;;;;;;-1.50;57.43;101228.91;1453732;87;21437;-79
2022/01/23 05:06:22;;;;;;;9.20;4.17;;;;;;;-1.45;57.46;101232.22;1446862;88;21626;-79
2022/01/23 05:08:42;;;;;;;12.82;5.33;;;;;;;-1.42;57.32;101239.45;1452942;88;23468;-78
2022/01/23 05:11:11;;;;;;;7.78;4.15;;;;;;;-1.40;57.46;101238.95;1441787;88;21473;-78
2022/01/23 05:13:38;;;;;;;9.73;5.60;;;;;;;-1.38;57.21;101243.66;1466610;86;21502;-78
2022/01/23 05:16:06;;;;;;;8.78;4.80;;;;;;;-1.37;57.26;101244.05;1475393;86;21524;-78
2022/01/23 05:18:35;;;;;;;9.03;5.00;;;;;;;-1.40;57.04;101242.84;1467655;86;21689;-78
2022/01/23 05:23:50;;;;;;;9.33;4.60;;;;;;;-1.38;57.18;101250.61;1425904;88;21509;-79
2022/01/23 05:26:17;;;;;;;10.63;4.70;;;;;;;-1.37;57.25;101264.81;1428027;86;21319;-79
2022/01/23 05:28:44;;;;;;;13.88;5.50;;;;;;;-1.34;56.82;101263.87;1440270;86;21354;-79
2022/01/23 05:31:11;;;;;;;10.20;4.70;;;;;;;-1.32;57.22;101269.00;1410123;88;21422;-79
2022/01/23 05:33:38;;;;;;;18.35;5.85;;;;;;;-1.31;57.17;101268.12;1409335;88;21371;-78
2022/01/23 05:36:06;;;;;;;8.93;5.47;;;;;;;-1.31;57.25;101268.12;1424341;87;21348;-78
2022/01/23 05:38:34;;;;;;;13.60;6.00;;;;;;;-1.32;57.04;101271.59;1404798;88;21334;-78
2022/01/23 05:41:01;;;;;;;15.15;6.62;;;;;;;-1.34;57.02;101280.75;1396002;88;21356;-79
2022/01/23 05:43:29;;;;;;;12.15;5.85;;;;;;;-1.37;57.17;101279.10;1397521;88;22398;-79
2022/01/23 05:45:56;;;;;;;7.92;4.90;;;;;;;-1.39;56.97;101287.38;1426633;88;21384;-77
2022/01/23 05:48:23;;;;;;;8.30;3.87;;;;;;;-1.41;57.27;101283.14;1400224;87;21437;-77
2022/01/23 05:50:50;;;;;;;8.55;3.85;;;;;;;-1.43;57.20;101282.36;1395573;88;22242;-77
2022/01/23 05:53:17;;;;;;;8.78;3.60;;;;;;;-1.50;56.84;101277.80;1431954;87;21391;-77
2022/01/23 05:55:45;;;;;;;11.12;5.47;;;;;;;-1.59;57.58;101280.23;1401347;88;21354;-77
2022/01/23 05:58:12;;;;;;;9.38;3.72;;;;;;;-1.69;57.98;101267.63;1402965;87;21274;-77
2022/01/23 06:00:39;;;;;;;13.50;5.33;;;;;;;-1.71;58.25;101266.81;1409310;86;21333;-77
2022/01/23 06:03:06;;;;;;;10.25;4.60;;;;;;;-1.74;58.41;101277.30;1435524;87;21472;-77
2022/01/23 06:05:34;;;;;;;11.35;4.70;;;;;;;-1.87;58.87;101282.88;1417145;87;21349;-77
2022/01/23 06:08:01;;;;;;;13.75;6.20;;;;;;;-1.88;58.82;101281.16;1410820;88;21428;-78
2022/01/23 06:10:35;;;;;;;9.28;5.15;;;;;;;-1.90;59.27;101297.67;1406182;87;21327;-78
2022/01/23 06:12:57;;;;;;;18.02;6.58;;;;;;;-1.93;59.36;101295.17;1433461;86;22900;-77
2022/01/23 06:15:25;;;;;;;10.75;5.30;;;;;;;-1.98;59.67;101283.66;1426494;86;21297;-76
2022/01/23 06:17:52;;;;;;;10.58;4.80;;;;;;;-1.96;60.25;101269.32;1456185;88;22398;-76
2022/01/23 06:20:19;;;;;;;8.90;5.10;;;;;;;-1.93;60.27;101279.59;1442996;89;21428;-77
2022/01/23 06:22:47;;;;;;;10.40;4.90;;;;;;;-1.89;60.45;101284.66;1473348;87;23535;-77
2022/01/23 06:25:16;;;;;;;7.97;4.58;;;;;;;-1.86;60.17;101289.75;1464427;87;22549;-78
2022/01/23 06:27:43;;;;;;;9.85;3.90;;;;;;;-1.95;60.38;101290.05;1481123;86;21450;-78
2022/01/23 06:30:11;;;;;;;9.68;4.97;;;;;;;-2.03;60.69;101299.80;1449264;87;21436;-78
2022/01/23 06:32:38;;;;;;;12.78;5.03;;;;;;;-2.05;61.32;101301.58;1473799;86;21428;-78
2022/01/23 06:35:06;;;;;;;10.13;4.40;;;;;;;-2.07;61.24;101312.02;1477815;86;23305;-78
2022/01/23 06:37:33;;;;;;;8.90;4.42;;;;;;;-2.07;61.42;101311.17;1472788;86;21680;-78
2022/01/23 06:40:01;;;;;;;9.60;3.20;;;;;;;-2.06;61.33;101308.52;1457697;87;21437;-78
2022/01/23 06:42:28;;;;;;;8.45;3.65;;;;;;;-1.99;61.15;101302.69;1445670;87;21452;-78
2022/01/23 06:44:57;;;;;;;6.17;2.90;;;;;;;-2.00;61.02;101302.30;1460904;86;21538;-77
2022/01/23 06:47:25;;;;;;;7.00;3.58;;;;;;;-1.99;61.01;101307.87;1479580;86;21626;-77
2022/01/23 06:49:52;;;;;;;8.28;4.87;;;;;;;-1.95;60.99;101298.28;1481983;86;22396;-76
2022/01/23 06:52:20;;;;;;;10.53;4.47;;;;;;;-1.90;60.99;101305.03;1475189;86;21449;-76
2022/01/23 06:54:47;;;;;;;5.15;2.33;;;;;;;-1.87;60.85;101306.23;1478330;86;21479;-76
2022/01/23 06:57:14;;;;;;;6.62;3.95;;;;;;;-1.83;60.41;101313.02;1488718;86;21512;-77
2022/01/23 06:59:42;;;;;;;6.78;3.58;;;;;;;-1.79;60.52;101311.62;1450559;88;21466;-77
2022/01/23 07:02:09;;;;;;;7.97;2.90;;;;;;;-1.77;60.45;101292.97;1444135;89;22513;-77
2022/01/23 07:04:36;;;;;;;6.90;3.27;;;;;;;-1.72;60.28;101293.68;1462790;87;21434;-77
2022/01/23 07:07:04;;;;;;;7.70;3.77;;;;;;;-1.63;60.20;101289.03;1478204;86;21508;-77
2022/01/23 07:09:31;;;;;;;7.35;3.70;;;;;;;-1.60;60.12;101297.17;1471185;87;21609;-77
2022/01/23 07:11:58;;;;;;;10.68;5.55;;;;;;;-1.53;60.05;101307.75;1490573;86;21523;-77
2022/01/23 07:14:26;;;;;;;8.05;4.50;;;;;;;-1.52;60.04;101313.36;1452395;88;21421;-77
2022/01/23 07:16:53;;;;;;;8.58;3.60;;;;;;;-1.52;60.14;101308.63;1433234;89;21575;-79
2022/01/23 07:19:21;;;;;;;7.97;4.05;;;;;;;-1.49;60.12;101311.13;1475406;86;22501;-79
2022/01/23 07:21:48;;;;;;;8.15;3.52;;;;;;;-1.43;59.87;101309.17;1456403;87;21847;-79
2022/01/23 07:24:16;;;;;;;7.10;3.98;;;;;;;-1.42;59.80;101313.45;1474178;86;21636;-78
2022/01/23 07:26:43;;;;;;;7.20;3.62;;;;;;;-1.40;60.14;101307.77;1463875;87;22418;-79
2022/01/23 07:29:11;;;;;;;8.55;4.42;;;;;;;-1.34;60.06;101309.77;1435262;88;22397;-79
2022/01/23 07:34:08;;;;;;;8.00;3.55;;;;;;;-1.25;60.14;101312.06;1458165;87;21664;-79
2022/01/23 07:36:36;;;;;;;7.62;3.52;;;;;;;-1.27;59.62;101307.36;1444954;88;21556;-79
2022/01/23 07:39:04;;;;;;;10.10;4.33;;;;;;;-1.23;59.90;101302.48;1399622;86;22513;-80
2022/01/23 07:41:32;;;;;;;6.95;3.62;;;;;;;-1.19;60.08;101306.20;1378276;87;21340;-78
2022/01/23 07:43:59;;;;;;;9.53;4.05;;;;;;;-1.18;60.01;101305.33;1437047;88;22318;-79
2022/01/23 07:46:26;;;;;;;7.50;3.62;;;;;;;-1.07;60.24;101308.00;1425168;88;21497;-79
2022/01/23 07:48:54;;;;;;;4.62;2.40;;;;;;;-1.02;60.06;101304.34;1420481;88;21311;-79
2022/01/23 07:51:22;;;;;;;10.38;3.47;;;;;;;-0.94;58.69;101300.19;1414690;88;22178;-79
2022/01/23 07:53:49;;;;;;;8.05;3.42;;;;;;;-0.83;58.81;101294.63;1382837;88;21318;-79
2022/01/23 07:56:17;;;;;;;7.03;2.65;;;;;;;-0.74;58.23;101299.50;1395617;89;21430;-80
2022/01/23 07:58:44;;;;;;;3.05;1.75;;;;;;;-0.65;58.63;101292.67;1411804;88;21406;-79
2022/01/23 08:01:12;;;;;;;4.45;2.20;;;;;;;-0.65;57.83;101283.57;1427561;88;22221;-78
2022/01/23 08:03:39;;;;;;;3.65;1.52;;;;;;;-0.57;58.00;101284.15;1403903;88;22213;-79
2022/01/23 08:06:07;;;;;;;4.30;2.05;;;;;;;-0.59;57.24;101291.14;1419981;88;21391;-79
2022/01/23 08:08:34;;;;;;;7.97;2.45;;;;;;;-0.55;57.38;101294.02;1449481;88;22418;-79
2022/01/23 08:11:01;;;;;;;4.60;1.90;;;;;;;-0.48;57.93;101285.11;1422498;88;21393;-79
2022/01/23 08:13:28;;;;;;;4.37;2.33;;;;;;;-0.44;57.07;101292.80;1425503;88;21326;-79
2022/01/23 08:15:56;;;;;;;5.35;2.50;;;;;;;-0.41;56.97;101297.42;1438468;87;21496;-79
2022/01/23 08:18:23;;;;;;;5.35;1.77;;;;;;;-0.32;56.54;101304.88;1423646;86;21333;-80
2022/01/23 08:20:51;;;;;;;6.83;1.90;;;;;;;-0.32;56.16;101299.68;1402167;87;22259;-79
2022/01/23 08:23:20;;;;;;;3.47;1.75;;;;;;;-0.32;55.75;101302.74;1444125;88;21987;-78
2022/01/23 08:25:47;;;;;;;7.47;2.77;;;;;;;-0.26;55.40;101305.98;1441019;88;22700;-79
2022/01/23 08:28:14;;;;;;;5.75;2.20;;;;;;;-0.14;56.21;101307.28;1415641;87;21639;-80
2022/01/23 08:30:42;;;;;;;4.20;1.90;;;;;;;-0.10;55.90;101297.14;1424575;86;22470;-77
2022/01/23 08:33:09;;;;;;;2.87;1.83;;;;;;;0.27;64.36;101297.48;1413954;88;21585;-78
2022/01/23 08:35:37;;;;;;;5.33;2.70;;;;;;;0.43;59.76;101300.72;1479577;86;21620;-78
2022/01/23 08:38:06;;;;;;;4.77;2.20;;;;;;;0.74;56.15;101297.31;1471684;86;22867;-79
2022/01/23 08:43:03;;;;;;;5.93;2.20;;;;;;;0.55;53.13;101295.93;1431571;88;21758;-80
2022/01/23 08:45:30;;;;;;;5.90;2.20;;;;;;;0.43;53.66;101301.15;1459805;88;21516;-80
2022/01/23 08:47:58;;;;;;;6.30;2.80;;;;;;;0.31;53.61;101300.34;1449503;88;21698;-79
2022/01/23 08:50:26;;;;;;;25.30;8.03;;;;;;;0.12;52.80;101304.14;1440873;87;21661;-80
2022/01/23 08:52:53;;;;;;;33.93;13.50;;;;;;;0.05;53.38;101305.27;1434022;87;21760;-79
2022/01/23 08:55:20;;;;;;;52.17;15.13;;;;;;;0.03;53.63;101307.07;1472771;86;21784;-79
2022/01/23 08:57:48;;;;;;;22.77;9.60;;;;;;;0.03;53.56;101305.77;1454508;88;21828;-79
2022/01/23 09:00:21;;;;;;;15.47;5.77;;;;;;;-0.02;53.73;101313.31;1455046;87;22731;-79
2022/01/23 09:02:49;;;;;;;15.47;6.47;;;;;;;-0.05;53.68;101313.89;1462085;87;22990;-79
2022/01/23 09:05:18;;;;;;;7.10;3.53;;;;;;;-0.08;53.82;101317.45;1461658;88;22192;-79
2022/01/23 09:07:45;;;;;;;4.80;1.83;;;;;;;-0.03;53.68;101314.23;1462054;87;21681;-80
2022/01/23 09:10:12;;;;;;;3.57;2.10;;;;;;;0.09;53.86;101315.52;1443939;88;22626;-79
2022/01/23 09:12:45;;;;;;;3.17;2.07;;;;;;;0.01;53.80;101316.72;1470634;86;21819;-80
2022/01/23 09:15:10;;;;;;;3.37;2.00;;;;;;;0.06;54.13;101318.66;1407930;91;21920;-79
2022/01/23 09:17:38;;;;;;;5.03;2.07;;;;;;;0.02;53.98;101321.84;1440797;89;22735;-79
2022/01/23 09:20:05;;;;;;;5.03;2.30;;;;;;;0.07;54.35;101321.68;1438907;89;21891;-79
2022/01/23 09:22:33;;;;;;;6.20;2.00;;;;;;;0.12;54.37;101321.91;1441436;89;22604;-79
2022/01/23 09:25:01;;;;;;;3.13;1.80;;;;;;;0.16;53.96;101327.83;1430395;89;22157;-79
2022/01/23 09:27:29;;;;;;;4.63;2.47;;;;;;;0.20;53.80;101331.57;1448742;87;23164;-79
2022/01/23 09:30:05;;;;;;;6.57;2.53;;;;;;;0.31;54.70;101328.53;1452384;88;21699;-79
2022/01/23 09:32:26;;;;;;;4.77;2.97;;;;;;;0.35;53.99;101328.82;1447834;88;22649;-80
2022/01/23 09:34:54;;;;;;;4.13;1.80;;;;;;;0.49;54.15;101330.88;1460805;88;21850;-80
2022/01/23 09:37:21;;;;;;;3.60;2.03;;;;;;;0.52;53.43;101332.06;1472061;87;21718;-79
2022/01/23 09:39:50;;;;;;;3.50;1.60;;;;;;;0.51;53.20;101332.95;1450277;87;22952;-79
2022/01/23 09:42:25;;;;;;;5.80;1.80;;;;;;;0.62;53.09;101336.44;1457282;86;21703;-79
2022/01/23 09:45:13;;;;;;;6.57;1.70;;;;;;;0.66;53.61;101331.05;1435582;86;21968;-79
2022/01/23 09:47:42;;;;;;;4.43;2.10;;;;;;;0.71;52.56;101327.41;1436829;88;22994;-79
2022/01/23 09:50:13;;;;;;;3.50;1.50;;;;;;;0.72;52.59;101331.27;1436281;87;21379;-78
2022/01/23 09:52:41;;;;;;;5.25;2.30;;;;;;;0.71;52.48;101333.92;1457653;86;21440;-79
2022/01/23 09:55:12;;;;;;;4.77;2.43;;;;;;;0.70;52.12;101336.14;1444467;87;21545;-80
2022/01/23 09:57:46;;;;;;;4.45;1.57;;;;;;;0.74;52.73;101332.48;1445381;87;21692;-80
2022/01/23 10:00:18;;;;;;;5.53;1.97;;;;;;;0.71;52.12;101337.36;1457557;88;21356;-79
2022/01/23 10:02:46;;;;;;;5.00;1.53;;;;;;;0.63;52.51;101338.13;1434821;88;21636;-79
2022/01/23 10:05:14;;;;;;;4.00;1.87;;;;;;;0.72;52.84;101337.78;1446005;88;21568;-79
2022/01/23 10:07:43;;;;;;;3.60;1.83;;;;;;;0.70;53.15;101331.77;1432651;88;21515;-79
2022/01/23 10:10:23;;;;;;;6.40;1.63;;;;;;;0.63;52.45;101338.13;1443460;88;22782;-78
2022/01/23 10:12:54;;;;;;;3.50;1.80;;;;;;;0.68;53.53;101334.42;1453568;87;22286;-78
2022/01/23 10:15:25;;;;;;;4.70;1.87;;;;;;;0.70;53.73;101330.47;1457686;88;21745;-78
2022/01/23 10:17:54;;;;;;;4.35;1.98;;;;;;;0.71;53.67;101330.84;1459873;87;21780;-79
2022/01/23 10:20:23;;;;;;;4.60;1.53;;;;;;;0.72;53.66;101325.17;1405536;90;21398;-78
2022/01/23 10:22:52;;;;;;;2.90;1.87;;;;;;;0.68;53.19;101329.67;1432171;88;21634;-78
2022/01/23 10:25:24;;;;;;;5.83;2.00;;;;;;;0.57;52.32;101329.25;1437389;88;21552;-79
2022/01/23 10:28:11;;;;;;;3.33;2.00;;;;;;;0.59;53.03;101334.80;1428286;89;22525;-79
2022/01/23 10:30:50;;;;;;;7.90;2.27;;;;;;;0.69;53.25;101332.66;1447207;87;21524;-79
2022/01/23 10:33:28;;;;;;;5.77;2.70;;;;;;;0.65;53.15;101329.34;1464955;86;21559;-79
2022/01/23 10:36:17;;;;;;;3.53;1.87;;;;;;;0.90;53.23;101333.56;1428374;89;22593;-79
2022/01/23 10:38:57;;;;;;;2.93;1.40;;;;;;;0.82;52.60;101330.42;1441084;88;22739;-75
2022/01/23 10:41:43;;;;;;;2.17;1.10;;;;;;;0.83;51.57;101339.46;1386735;87;23037;-78
2022/01/23 10:50:00;;;;;;;5.37;1.93;;;;;;;0.74;51.12;101348.96;1413835;89;21632;-78
2022/01/23 10:52:38;;;;;;;4.47;1.70;;;;;;;0.84;51.67;101343.78;1381355;90;21821;-77
2022/01/23 10:55:20;;;;;;;6.60;1.70;;;;;;;0.71;51.70;101358.21;1400500;88;21342;-78
2022/01/23 10:57:51;;;;;;;3.77;1.67;;;;;;;0.63;51.86;101351.16;1437359;89;21836;-77
2022/01/23 11:00:37;;;;;;;4.50;1.90;;;;;;;0.53;52.15;101343.33;1367627;90;21782;-77
2022/01/23 11:03:18;;;;;;;4.67;2.07;;;;;;;0.49;52.85;101346.52;1422302;88;21360;-77
2022/01/23 11:05:48;;;;;;;5.00;2.20;;;;;;;0.46;53.23;101346.60;1433366;89;21739;-77
2022/01/23 11:08:31;;;;;;;5.03;2.33;;;;;;;0.44;54.27;101348.45;1429351;88;22442;-77
2022/01/23 11:11:08;;;;;;;6.77;2.80;;;;;;;0.37;54.24;101350.42;1384368;88;21518;-79
2022/01/23 11:19:39;;;;;;;8.67;3.23;;;;;;;0.43;54.84;101348.91;1391103;90;22614;-80
2022/01/23 11:22:04;;;;;;;9.13;4.20;;;;;;;0.51;55.31;101356.86;1380767;90;21565;-79
2022/01/23 11:24:42;;;;;;;7.10;2.63;;;;;;;0.74;55.20;101356.78;1415016;89;22567;-79
2022/01/23 11:27:09;;;;;;;6.53;2.87;;;;;;;1.08;54.94;101358.02;1413829;88;22548;-80
2022/01/23 11:29:36;;;;;;;6.93;3.13;;;;;;;1.28;53.66;101367.14;1394536;89;21711;-80
2022/01/23 11:32:06;;;;;;;6.70;2.97;;;;;;;1.43;52.52;101375.23;1372336;89;21754;-80
2022/01/23 11:34:34;;;;;;;6.57;3.10;;;;;;;1.38;52.28;101373.27;1386672;88;21658;-79
2022/01/23 11:37:02;;;;;;;5.57;3.20;;;;;;;1.13;52.54;101360.81;1366775;90;21743;-80
2022/01/23 11:39:41;;;;;;;6.63;3.30;;;;;;;1.01;53.30;101368.31;1399965;89;21540;-79
2022/01/23 11:53:45;;;;;;;6.20;2.77;;;;;;;1.94;51.26;101364.72;1446532;88;21773;-80
2022/01/23 11:56:36;;;;;;;7.30;3.70;;;;;;;1.90;50.51;101359.23;1491129;88;22099;-79
2022/01/23 11:59:22;;;;;;;4.90;2.80;;;;;;;1.75;50.81;101370.74;1404100;88;22063;-80
2022/01/23 12:01:47;;;;;;;6.07;3.43;;;;;;;1.79;50.13;101361.04;1413982;89;21354;-79
2022/01/23 12:04:20;;;;;;;6.33;2.77;;;;;;;1.70;50.25;101362.30;1476866;89;22433;-78
2022/01/23 12:07:15;;;;;;;8.67;3.73;;;;;;;1.75;51.01;101365.98;1485345;89;22264;-80
2022/01/23 12:09:43;;;;;;;7.37;3.43;;;;;;;1.54;51.21;101365.17;1429542;89;23332;-79
2022/01/23 12:18:21;;;;;;;12.73;3.60;;;;;;;1.14;52.73;101364.27;1481710;89;21928;-79
2022/01/23 12:20:50;;;;;;;6.13;2.67;;;;;;;0.76;54.03;101363.25;1462856;89;21785;-78
2022/01/23 12:23:19;;;;;;;6.80;3.33;;;;;;;0.72;54.58;101363.83;1428290;89;21587;-78
2022/01/23 12:25:53;;;;;;;8.40;4.07;;;;;;;0.66;54.95;101365.36;1432610;89;22626;-78
2022/01/23 12:28:29;;;;;;;11.67;4.67;;;;;;;0.72;55.66;101369.05;1469184;89;22915;-79
2022/01/23 12:31:00;;;;;;;9.57;2.83;;;;;;;0.67;55.89;101357.95;1488639;88;21560;-78
2022/01/23 12:33:32;;;;;;;8.08;4.33;;;;;;;0.54;55.64;101362.78;1478457;89;21586;-79
2022/01/23 12:36:07;;;;;;;11.97;4.20;;;;;;;0.65;56.77;101357.16;1444023;89;21748;-79
2022/01/23 12:38:40;;;;;;;10.03;4.93;;;;;;;0.52;56.78;101363.75;1438888;89;22449;-78
2022/01/23 12:41:34;;;;;;;7.07;3.43;;;;;;;0.36;56.45;101366.13;1450186;89;21638;-78
2022/01/23 12:44:28;;;;;;;11.17;4.20;;;;;;;0.32;56.89;101367.16;1441554;88;21671;-78
2022/01/23 12:47:10;;;;;;;12.07;5.17;;;;;;;0.35;56.75;101370.48;1434197;88;23374;-79
2022/01/23 12:49:53;;;;;;;7.67;3.10;;;;;;;0.41;56.68;101381.97;1459657;88;22172;-79
2022/01/23 12:52:23;;;;;;;12.47;3.40;;;;;;;0.41;56.90;101378.06;1440749;88;21943;-79
2022/01/23 12:54:56;;;;;;;7.13;3.20;;;;;;;0.52;57.29;101389.80;1450050;88;21867;-79
2022/01/23 12:57:39;;;;;;;7.83;3.63;;;;;;;0.47;56.53;101387.85;1421158;88;21472;-78
2022/01/23 13:00:12;;;;;;;10.43;3.50;;;;;;;0.50;56.83;101391.18;1450121;88;22645;-76
2022/01/23 13:02:50;;;;;;;10.00;4.67;;;;;;;0.52;56.71;101393.28;1462828;88;21338;-79
2022/01/23 13:05:14;;;;;;;8.03;3.63;;;;;;;0.63;56.36;101403.26;1458034;88;21698;-79
2022/01/23 13:08:02;;;;;;;13.27;4.33;;;;;;;0.77;56.11;101403.56;1448917;88;21828;-79
2022/01/23 13:12:54;;;;;;;5.50;2.67;;;;;;;0.61;56.67;101407.70;1445481;86;22462;-79
2022/01/23 13:29:55;;;;;;;6.47;3.60;;;;;;;0.30;61.40;101445.33;1446825;87;22723;-80
2022/01/23 13:32:13;;;;;;;7.27;3.30;;;;;;;0.21;61.25;101430.05;1472355;86;22136;-79
2022/01/23 13:34:48;;;;;;;6.73;3.13;;;;;;;0.18;61.91;101430.16;1464850;86;21704;-79
2022/01/23 13:37:23;;;;;;;8.60;3.60;;;;;;;0.08;62.90;101447.02;1455361;88;21745;-79
2022/01/23 13:40:04;;;;;;;8.33;4.20;;;;;;;-0.06;63.05;101452.28;1454210;88;21625;-79
2022/01/23 13:59:49;;;;;;;5.27;2.40;;;;;;;1.18;60.65;101466.25;1462845;87;22173;-79
2022/01/23 14:02:27;;;;;;;6.97;3.83;;;;;;;1.27;59.18;101467.17;1453998;88;22194;-79
2022/01/23 14:05:04;;;;;;;8.00;3.63;;;;;;;1.66;58.29;101476.84;1492903;88;22063;-79
2022/01/23 14:07:32;;;;;;;9.10;3.37;;;;;;;1.66;58.29;101476.84;1504846;88;21481;-80
2022/01/23 14:10:20;;;;;;;3.07;2.17;;;;;;;1.88;57.62;101485.93;1426227;87;22237;-79
2022/01/23 14:12:51;;;;;;;10.43;3.30;;;;;;;1.95;56.99;101495.64;1468735;86;22403;-80
2022/01/23 14:15:23;;;;;;;7.10;3.00;;;;;;;1.66;58.01;101492.97;1458708;86;21332;-79
2022/01/23 14:18:07;;;;;;;5.50;3.43;;;;;;;0.99;60.37;101499.17;1426275;88;21332;-80
2022/01/23 14:20:39;;;;;;;8.13;3.23;;;;;;;0.71;62.13;101491.10;1442143;88;22033;-80
2022/01/23 14:23:17;;;;;;;8.87;4.33;;;;;;;0.39;63.00;101506.64;1463440;88;22056;-79
2022/01/23 14:25:48;;;;;;;6.10;2.67;;;;;;;0.39;63.00;101506.64;1502475;88;22012;-79
2022/01/23 14:28:28;;;;;;;7.45;2.52;;;;;;;0.24;63.32;101509.34;1470767;88;21759;-79
2022/01/23 14:31:04;;;;;;;4.70;2.03;;;;;;;-0.02;63.64;101502.00;1442502;88;21428;-79
2022/01/23 14:33:34;;;;;;;4.73;2.10;;;;;;;-0.35;63.86;101510.95;1414254;88;23004;-79
2022/01/23 14:36:27;;;;;;;8.67;3.43;;;;;;;-0.41;63.83;101512.47;1419635;89;21467;-79
2022/01/23 14:39:08;;;;;;;5.20;2.20;;;;;;;-0.46;64.37;101510.88;1428347;88;21561;-79
2022/01/23 14:41:42;;;;;;;;;;;;;;;-0.61;64.56;101515.72;1467087;87;22574;-79
2022/01/23 14:44:27;;;;;;;4.10;2.43;;;;;;;-0.75;65.39;101511.83;1392921;87;20256;-79
2022/01/23 14:46:57;;;;;;;3.80;2.20;;;;;;;-0.75;65.65;101516.15;1407604;87;22422;-79
2022/01/23 14:49:28;;;;;;;5.78;2.30;;;;;;;-0.86;65.62;101530.81;1417735;87;21667;-79
2022/01/23 14:51:58;;;;;;;5.25;3.50;;;;;;;-0.86;66.18;101532.53;1397135;87;21355;-79
2022/01/23 14:54:32;;;;;;;6.97;2.70;;;;;;;-0.85;66.15;101536.85;1435212;88;21450;-79
2022/01/23 14:57:20;;;;;;;6.92;2.92;;;;;;;-0.80;66.37;101547.97;1450958;88;21429;-79
2022/01/23 14:59:47;;;;;;;6.33;3.50;;;;;;;-0.92;65.90;101547.89;1456600;87;22560;-78
2022/01/23 15:02:16;;;;;;;10.25;4.37;;;;;;;-0.92;67.03;101553.94;1445602;87;22333;-81
2022/01/23 15:04:47;;;;;;;5.55;2.92;;;;;;;-0.93;66.47;101565.66;1391498;88;21444;-79
2022/01/23 15:07:16;;;;;;;;;;;;;;;-0.91;64.76;101563.88;1385027;89;21361;-79
2022/01/23 15:09:49;;;;;;;7.10;3.55;;;;;;;-0.94;65.72;101564.82;1413596;88;20462;-78
2022/01/23 15:12:18;;;;;;;5.10;2.80;;;;;;;-1.03;66.05;101569.00;1389757;86;21363;-77
2022/01/23 15:14:45;;;;;;;7.08;3.33;;;;;;;-1.16;63.03;101571.55;1392028;88;21348;-78
2022/01/23 15:17:13;;;;;;;6.45;3.17;;;;;;;-1.11;64.26;101586.56;1402754;88;21452;-79
2022/01/23 15:19:40;;;;;;;4.78;2.22;;;;;;;-1.23;64.01;101581.27;1459704;88;21539;-79
2022/01/23 15:22:08;;;;;;;5.12;2.55;;;;;;;-1.21;62.95;101586.41;1443064;88;22065;-80